Kerrville Municipal Louis Schreiner Field


Codes: KERV/ERV
Name: Kerrville Municipal Louis Schreiner Field
City: Kerrville
Country: United States
Elevation: 1617 ft.
Website:
Wikipedia:

Photos at Kerrville Municipal Louis Schreiner Field


   Photos courtesy of SpottingLog. You can add your own sightings and photos by signing up for a free trial today.



No photos found.

Weather at Kerrville Municipal Louis Schreiner Field


Time (UTC)DescriptionTempratureWindCloud coverageVisibilityPressureHumidity
13-Jun-2024 03:00Broken Clouds29°C4 mph, E75%10000m1013hPa71%
13-Jun-2024 06:00Broken Clouds27°C4 mph, SE64%10000m1013hPa75%
13-Jun-2024 09:00Scattered Clouds25°C4 mph, SE25%10000m1012hPa81%
13-Jun-2024 12:00Clear Sky22°C4 mph, S0%10000m1013hPa93%
13-Jun-2024 15:00Clear Sky28°C7 mph, S0%10000m1014hPa69%
13-Jun-2024 18:00Light Rain32°C2 mph, SE2%10000m1013hPa49%
13-Jun-2024 21:00Overcast Clouds30°C7 mph, SE100%10000m1013hPa56%
14-Jun-2024 00:00Broken Clouds31°C9 mph, SE58%10000m1011hPa49%
14-Jun-2024 03:00Clear Sky26°C4 mph, SE1%10000m1012hPa64%
14-Jun-2024 06:00Clear Sky24°C7 mph, SE0%10000m1014hPa74%
14-Jun-2024 09:00Clear Sky22°C4 mph, S0%10000m1013hPa86%
14-Jun-2024 12:00Clear Sky22°C4 mph, S0%10000m1014hPa90%
14-Jun-2024 15:00Clear Sky28°C7 mph, S0%10000m1015hPa61%
14-Jun-2024 18:00Clear Sky32°C9 mph, SE0%10000m1014hPa41%
14-Jun-2024 21:00Clear Sky35°C9 mph, SE0%10000m1012hPa31%
15-Jun-2024 00:00Clear Sky34°C13 mph, SE0%10000m1010hPa32%
15-Jun-2024 03:00Clear Sky27°C7 mph, E0%10000m1012hPa47%
15-Jun-2024 06:00Clear Sky25°C9 mph, SE0%10000m1014hPa71%
15-Jun-2024 09:00Clear Sky22°C7 mph, S0%10000m1013hPa88%
15-Jun-2024 12:00Clear Sky21°C4 mph, S5%10000m1013hPa98%
15-Jun-2024 15:00Scattered Clouds27°C11 mph, S48%10000m1014hPa63%
15-Jun-2024 18:00Few Clouds32°C11 mph, SE24%10000m1012hPa39%
15-Jun-2024 21:00Clear Sky35°C13 mph, SE0%10000m1009hPa31%
16-Jun-2024 00:00Clear Sky34°C11 mph, SE0%10000m1008hPa30%
16-Jun-2024 03:00Clear Sky28°C13 mph, SE7%10000m1009hPa47%
16-Jun-2024 06:00Clear Sky24°C16 mph, SE4%10000m1012hPa82%
16-Jun-2024 09:00Broken Clouds24°C18 mph, SE63%10000m1010hPa87%
16-Jun-2024 12:00Light Rain24°C13 mph, S82%10000m1011hPa88%
16-Jun-2024 15:00Scattered Clouds28°C16 mph, S46%10000m1011hPa65%
16-Jun-2024 18:00Scattered Clouds33°C16 mph, S31%10000m1010hPa39%
16-Jun-2024 21:00Clear Sky37°C16 mph, SE1%10000m1007hPa28%
17-Jun-2024 00:00Clear Sky33°C29 mph, SE2%10000m1007hPa44%
17-Jun-2024 03:00Clear Sky27°C20 mph, SE6%10000m1009hPa66%
17-Jun-2024 06:00Clear Sky23°C20 mph, SE9%10000m1011hPa86%
17-Jun-2024 09:00Overcast Clouds23°C20 mph, S89%10000m1010hPa82%
17-Jun-2024 12:00Light Rain23°C13 mph, S95%10000m1011hPa89%
17-Jun-2024 15:00Light Rain26°C18 mph, S79%10000m1011hPa72%
17-Jun-2024 18:00Light Rain29°C18 mph, S81%10000m1011hPa57%
17-Jun-2024 21:00Broken Clouds32°C20 mph, SE67%10000m1009hPa45%
18-Jun-2024 00:00Scattered Clouds30°C22 mph, SE43%10000m1008hPa47%